createdAt,value
2019-06-27T00:02:12.805Z,100707.98
2019-06-27T00:06:19.620Z,100708.03
2019-06-27T00:10:27.189Z,100710.03
2019-06-27T00:14:33.993Z,100714.86
2019-06-27T00:18:40.783Z,100712.14
2019-06-27T00:22:47.988Z,100719.45
2019-06-27T00:26:57.395Z,100718.74
2019-06-27T00:31:04.592Z,100713.93
2019-06-27T00:35:11.547Z,100714.45
2019-06-27T00:39:18.291Z,100713.99
2019-06-27T00:43:25.089Z,100717.80
2019-06-27T00:47:31.876Z,100721.09
2019-06-27T00:51:38.668Z,100719.76
2019-06-27T00:55:45.682Z,100727.66
2019-06-27T00:59:52.494Z,100738.55
2019-06-27T01:19:45.509Z,100725.98
2019-06-27T01:23:52.959Z,100726.78
2019-06-27T01:27:59.731Z,100726.78
2019-06-27T01:32:06.818Z,100738.72
2019-06-27T01:36:13.691Z,100736.30
2019-06-27T01:40:20.597Z,100735.50
2019-06-27T01:44:46.536Z,100749.32
2019-06-27T01:48:53.399Z,100754.17
2019-06-27T01:53:00.335Z,100751.22
2019-06-27T01:57:07.138Z,100750.41
2019-06-27T02:01:13.902Z,100749.32
2019-06-27T02:05:20.750Z,100750.94
2019-06-27T02:09:27.477Z,100749.59
2019-06-27T02:13:34.218Z,100757.71
2019-06-27T02:17:41.117Z,100753.66
2019-06-27T02:21:48.010Z,100755.52
2019-06-27T02:25:54.801Z,100756.33
2019-06-27T02:30:01.517Z,100757.63
2019-06-27T02:34:08.577Z,100770.09
2019-06-27T02:38:15.273Z,100768.99
2019-06-27T02:42:22.039Z,100770.34
2019-06-27T02:46:28.800Z,100780.31
2019-06-27T02:50:35.884Z,100780.31
2019-06-27T02:54:42.808Z,100776.23
2019-06-27T02:58:49.683Z,100777.59
2019-06-27T03:02:56.564Z,100766.13
2019-06-27T03:07:03.647Z,100768.25
2019-06-27T03:11:10.458Z,100781.74
2019-06-27T03:15:17.279Z,100778.47
2019-06-27T03:19:24.008Z,100775.17
2019-06-27T03:23:30.734Z,100784.03
2019-06-27T03:27:37.453Z,100783.52
2019-06-27T03:31:44.388Z,100787.58
2019-06-27T03:35:51.152Z,100780.75
2019-06-27T03:39:57.975Z,100775.55
2019-06-27T03:44:04.771Z,100779.87
2019-06-27T03:48:11.532Z,100782.54
2019-06-27T03:52:18.379Z,100770.89
2019-06-27T03:56:25.167Z,100774.13
2019-06-27T04:00:34.657Z,100773.94
2019-06-27T04:04:41.406Z,100787.82
2019-06-27T04:08:48.152Z,100778.84
2019-06-27T04:12:55.128Z,100792.60
2019-06-27T04:17:01.904Z,100804.48
2019-06-27T04:21:08.677Z,100804.71
2019-06-27T04:25:15.493Z,100814.65
2019-06-27T04:29:33.676Z,100812.00
2019-06-27T04:33:30.787Z,100817.34
2019-06-27T04:37:37.557Z,100818.73
2019-06-27T04:41:44.287Z,100828.45
2019-06-27T04:45:51.092Z,100829.17
2019-06-27T04:49:57.914Z,100830.89
2019-06-27T04:54:04.672Z,100822.75
2019-06-27T04:58:12.566Z,100833.45
2019-06-27T05:02:19.448Z,100837.00
2019-06-27T05:06:26.292Z,100839.66
2019-06-27T05:10:34.766Z,100848.33
2019-06-27T05:14:42.241Z,100840.83
2019-06-27T05:18:49.103Z,100841.41
2019-06-27T05:22:56.376Z,100850.05
2019-06-27T05:27:03.270Z,100847.09
2019-06-27T05:31:09.990Z,100845.05
2019-06-27T05:35:16.857Z,100846.82
2019-06-27T05:39:23.678Z,100855.45
2019-06-27T05:43:30.895Z,100854.55
2019-06-27T05:47:37.739Z,100861.70
2019-06-27T05:51:44.552Z,100863.91
2019-06-27T05:55:52.410Z,100859.85
2019-06-27T05:59:59.199Z,100861.97
2019-06-27T06:04:06.082Z,100861.43
2019-06-27T06:08:12.854Z,100863.67
2019-06-27T06:12:37.388Z,100860.39
2019-06-27T06:16:44.137Z,100865.21
2019-06-27T06:20:52.961Z,100865.17
2019-06-27T06:25:00.809Z,100869.81
2019-06-27T06:29:07.750Z,100869.03
2019-06-27T06:33:14.547Z,100881.32
2019-06-27T06:37:27.380Z,100879.56
2019-06-27T06:41:37.639Z,100890.63
2019-06-27T06:45:44.573Z,100889.62
2019-06-27T06:49:51.822Z,100893.24
2019-06-27T06:54:00.754Z,100897.30
2019-06-27T06:58:07.561Z,100896.22
2019-06-27T07:02:14.339Z,100905.50
2019-06-27T07:06:21.262Z,100909.31
2019-06-27T07:10:28.278Z,100903.36
2019-06-27T07:14:35.163Z,100914.53
2019-06-27T07:18:41.985Z,100916.64
2019-06-27T07:23:00.764Z,100913.69
2019-06-27T07:27:07.763Z,100913.44
2019-06-27T07:31:19.910Z,100919.64
2019-06-27T07:35:26.810Z,100922.42
2019-06-27T07:39:34.000Z,100918.06
2019-06-27T07:43:40.792Z,100924.58
2019-06-27T07:47:47.804Z,100920.76
2019-06-27T07:51:54.725Z,100932.13
2019-06-27T07:56:01.648Z,100918.02
2019-06-27T08:00:09.917Z,100917.95
2019-06-27T08:04:16.979Z,100927.45
2019-06-27T08:08:24.319Z,100925.73
2019-06-27T08:12:31.367Z,100928.70
2019-06-27T08:16:38.152Z,100924.28
2019-06-27T08:20:45.049Z,100932.55
2019-06-27T08:24:51.935Z,100932.22
2019-06-27T08:28:59.765Z,100934.77
2019-06-27T08:33:06.503Z,100932.86
2019-06-27T08:37:14.308Z,100929.55
2019-06-27T08:41:21.632Z,100937.44
2019-06-27T08:45:28.633Z,100940.48
2019-06-27T08:49:37.419Z,100941.48
2019-06-27T08:53:44.449Z,100940.48
2019-06-27T08:57:51.363Z,100937.31
2019-06-27T09:02:07.838Z,100937.89
2019-06-27T09:06:06.883Z,100939.16
2019-06-27T09:10:14.104Z,100940.97
2019-06-27T09:14:21.053Z,100938.63
2019-06-27T09:18:27.974Z,100948.34
2019-06-27T09:22:34.697Z,100936.20
2019-06-27T09:26:41.425Z,100939.33
2019-06-27T09:30:49.874Z,100942.99
2019-06-27T09:34:56.716Z,100945.56
2019-06-27T09:39:03.788Z,100948.89
2019-06-27T09:43:13.195Z,100944.52
2019-06-27T09:47:19.950Z,100955.84
2019-06-27T09:51:26.703Z,100945.41
2019-06-27T09:55:33.712Z,100943.45
2019-06-27T09:59:42.337Z,100948.91
2019-06-27T10:03:49.137Z,100957.38
2019-06-27T10:07:55.922Z,100954.23
2019-06-27T10:12:03.937Z,100939.53
2019-06-27T10:16:10.772Z,100950.89
2019-06-27T10:20:20.221Z,100953.17
2019-06-27T10:24:27.468Z,100951.38
2019-06-27T10:28:34.285Z,100943.81
2019-06-27T10:32:54.292Z,100937.12
2019-06-27T10:36:49.785Z,100943.74
2019-06-27T10:40:56.892Z,100940.44
2019-06-27T10:45:07.069Z,100936.55
2019-06-27T10:49:13.808Z,100926.54
2019-06-27T10:53:20.534Z,100935.58
2019-06-27T10:57:27.352Z,100926.53
2019-06-27T11:01:34.137Z,100922.36
2019-06-27T11:05:40.902Z,100916.20
2019-06-27T11:09:50.187Z,100915.55
2019-06-27T11:13:59.150Z,100913.80
2019-06-27T11:18:04.966Z,100916.81
2019-06-27T11:22:11.647Z,100912.63
2019-06-27T11:26:18.517Z,100906.23
2019-06-27T11:30:25.559Z,100902.59
2019-06-27T11:34:34.938Z,100893.38
2019-06-27T11:38:40.932Z,100894.51
2019-06-27T11:42:47.747Z,100902.52
2019-06-27T11:46:54.623Z,100895.84
2019-06-27T11:51:01.445Z,100895.31
2019-06-27T11:55:08.775Z,100890.97
2019-06-27T11:59:15.573Z,100886.41
2019-06-27T12:03:23.119Z,100884.60
2019-06-27T12:07:29.919Z,100885.33
2019-06-27T12:11:36.672Z,100883.29
2019-06-27T12:15:43.544Z,100871.42
2019-06-27T12:19:50.542Z,100869.53
2019-06-27T12:23:57.444Z,100873.03
2019-06-27T12:28:04.308Z,100863.02
2019-06-27T12:32:13.652Z,100864.80
2019-06-27T12:36:20.458Z,100856.83
2019-06-27T12:40:27.320Z,100863.05
2019-06-27T12:44:34.237Z,100855.11
2019-06-27T12:48:41.125Z,100848.82
2019-06-27T12:52:47.956Z,100850.34
2019-06-27T12:56:55.185Z,100850.89
2019-06-27T13:01:04.294Z,100841.08
2019-06-27T13:05:13.825Z,100835.73
2019-06-27T13:09:20.858Z,100831.45
2019-06-27T13:13:30.494Z,100823.78
2019-06-27T13:17:36.515Z,100827.24
2019-06-27T13:21:43.489Z,100825.38
2019-06-27T13:25:50.485Z,100824.48
2019-06-27T13:29:57.382Z,100827.68
2019-06-27T13:34:04.338Z,100815.72
2019-06-27T13:38:11.194Z,100822.27
2019-06-27T13:42:18.031Z,100814.80
2019-06-27T13:46:24.881Z,100815.30
2019-06-27T13:50:31.925Z,100814.50
2019-06-27T13:54:39.014Z,100791.91
2019-06-27T13:58:45.855Z,100791.08
2019-06-27T14:02:53.889Z,100793.66
2019-06-27T14:07:00.877Z,100791.43
2019-06-27T14:11:08.977Z,100780.62
2019-06-27T14:15:15.795Z,100771.70
2019-06-27T14:19:22.724Z,100780.43
2019-06-27T14:23:29.624Z,100768.26
2019-06-27T14:27:36.596Z,100763.30
2019-06-27T14:31:43.830Z,100761.83
2019-06-27T14:35:50.638Z,100762.94
2019-06-27T14:39:57.641Z,100764.38
2019-06-27T14:44:04.436Z,100749.77
2019-06-27T14:48:11.206Z,100747.39
2019-06-27T14:52:18.007Z,100740.00
2019-06-27T14:56:24.885Z,100734.83
2019-06-27T15:00:31.735Z,100740.39
2019-06-27T15:04:38.537Z,100716.14
2019-06-27T15:08:45.422Z,100712.61
2019-06-27T15:12:56.977Z,100705.37
2019-06-27T15:17:00.879Z,100708.30
2019-06-27T15:21:07.953Z,100712.07
2019-06-27T15:25:14.976Z,100703.36
2019-06-27T15:29:21.750Z,100705.13
2019-06-27T15:33:28.811Z,100704.50
2019-06-27T15:37:35.610Z,100695.50
2019-06-27T15:41:42.390Z,100692.48
2019-06-27T15:45:49.184Z,100687.01
2019-06-27T15:49:56.043Z,100695.85
2019-06-27T15:54:03.073Z,100692.48
2019-06-27T15:58:09.847Z,100690.67
2019-06-27T16:02:16.587Z,100694.72
2019-06-27T16:06:23.369Z,100687.48
2019-06-27T16:10:30.202Z,100688.75
2019-06-27T16:14:37.030Z,100681.53
2019-06-27T16:18:43.839Z,100681.13
2019-06-27T16:22:50.530Z,100667.30
2019-06-27T16:26:57.750Z,100675.68
2019-06-27T16:31:04.583Z,100669.82
2019-06-27T16:35:11.712Z,100670.22
2019-06-27T16:39:18.565Z,100667.14
2019-06-27T16:43:25.323Z,100671.18
2019-06-27T16:47:32.258Z,100670.43
2019-06-27T16:51:40.203Z,100675.03
2019-06-27T16:55:48.004Z,100672.15
2019-06-27T16:59:54.859Z,100668.48
2019-06-27T17:04:02.243Z,100665.69
2019-06-27T17:08:10.244Z,100674.87
2019-06-27T17:12:16.991Z,100669.35
2019-06-27T17:16:23.841Z,100669.11
2019-06-27T17:20:31.740Z,100664.02
2019-06-27T17:24:38.638Z,100668.55
2019-06-27T17:28:45.611Z,100669.03
2019-06-27T17:32:52.377Z,100669.14
2019-06-27T17:37:00.157Z,100668.81
2019-06-27T17:41:07.315Z,100661.50
2019-06-27T17:45:14.511Z,100668.88
2019-06-27T17:49:21.451Z,100669.62
2019-06-27T17:53:29.727Z,100663.56
2019-06-27T17:57:36.539Z,100665.19
2019-06-27T18:01:43.447Z,100668.41
2019-06-27T18:05:50.461Z,100665.66
2019-06-27T18:09:57.359Z,100666.98
2019-06-27T18:14:04.303Z,100671.63
2019-06-27T18:18:11.139Z,100672.22
2019-06-27T18:22:18.143Z,100677.84
2019-06-27T18:26:24.928Z,100668.52
2019-06-27T18:30:31.949Z,100682.80
2019-06-27T18:34:38.887Z,100675.02
2019-06-27T18:38:46.213Z,100675.02
2019-06-27T18:42:53.090Z,100674.16
2019-06-27T18:46:59.849Z,100669.17
2019-06-27T18:51:07.383Z,100674.77
2019-06-27T18:55:15.521Z,100663.20
2019-06-27T18:59:22.311Z,100663.34
2019-06-27T19:03:29.243Z,100665.27
2019-06-27T19:07:44.953Z,100678.35
2019-06-27T19:11:44.660Z,100680.66
2019-06-27T19:15:51.367Z,100682.42
2019-06-27T19:20:02.557Z,100685.23
2019-06-27T19:24:27.802Z,100692.50
2019-06-27T19:28:34.683Z,100695.27
2019-06-27T19:32:42.122Z,100700.98
2019-06-27T19:36:50.310Z,100709.27
2019-06-27T19:40:57.121Z,100713.42
2019-06-27T19:45:04.785Z,100719.15
2019-06-27T19:49:11.552Z,100720.33
2019-06-27T19:53:18.439Z,100720.64
2019-06-27T19:57:25.320Z,100726.95
2019-06-27T20:01:32.115Z,100736.53
2019-06-27T20:05:39.354Z,100736.03
2019-06-27T20:09:46.334Z,100738.30
2019-06-27T20:13:53.585Z,100734.23
2019-06-27T20:18:00.693Z,100748.08
2019-06-27T20:22:07.868Z,100748.92
2019-06-27T20:26:14.857Z,100763.36
2019-06-27T20:30:22.901Z,100769.89
2019-06-27T20:34:29.833Z,100765.81
2019-06-27T20:38:36.924Z,100763.91
2019-06-27T20:42:44.004Z,100773.41
2019-06-27T20:46:50.915Z,100774.78
2019-06-27T20:50:58.007Z,100777.73
2019-06-27T20:55:04.892Z,100777.73
2019-06-27T20:59:12.766Z,100774.78
2019-06-27T21:03:19.543Z,100773.42
2019-06-27T21:07:26.283Z,100779.59
2019-06-27T21:11:33.273Z,100780.67
2019-06-27T21:15:43.426Z,100783.06
2019-06-27T21:19:50.360Z,100782.80
2019-06-27T21:23:57.763Z,100784.13
2019-06-27T21:28:07.824Z,100788.42
2019-06-27T21:32:30.232Z,100789.50
2019-06-27T21:36:27.697Z,100787.05
2019-06-27T21:40:34.409Z,100788.36
2019-06-27T21:44:41.404Z,100793.79
2019-06-27T21:48:48.128Z,100792.30
2019-06-27T21:52:54.823Z,100796.28
2019-06-27T21:57:02.369Z,100793.01
2019-06-27T22:01:09.094Z,100797.27
2019-06-27T22:05:15.871Z,100793.14
2019-06-27T22:09:25.000Z,100793.07
2019-06-27T22:13:31.085Z,100786.01
2019-06-27T22:17:37.822Z,100798.11
2019-06-27T22:21:50.263Z,100793.14
2019-06-27T22:25:57.062Z,100790.25
2019-06-27T22:30:03.825Z,100793.02
2019-06-27T22:34:11.055Z,100788.64
2019-06-27T22:38:35.619Z,100785.69
2019-06-27T22:43:03.988Z,100786.92
2019-06-27T22:47:26.152Z,100788.48
2019-06-27T22:51:56.748Z,100784.00
2019-06-27T22:56:03.685Z,100788.71
2019-06-27T23:00:11.409Z,100795.12
2019-06-27T23:04:18.442Z,100791.78
2019-06-27T23:08:25.415Z,100797.66
2019-06-27T23:12:32.106Z,100786.82
2019-06-27T23:16:40.154Z,100787.95
2019-06-27T23:20:47.041Z,100784.97
2019-06-27T23:24:53.915Z,100782.77
2019-06-27T23:29:00.645Z,100785.39
2019-06-27T23:33:07.535Z,100777.17
2019-06-27T23:37:14.323Z,100782.34
2019-06-27T23:41:22.278Z,100792.82
2019-06-27T23:45:30.098Z,100785.23
2019-06-27T23:49:36.878Z,100777.66
2019-06-27T23:53:43.722Z,100787.76
2019-06-27T23:57:50.625Z,100794.20
